createdAt,value
2018-03-19T00:01:22.591Z,21.48
2018-03-19T00:03:49.241Z,18.15
2018-03-19T00:06:15.901Z,19.85
2018-03-19T00:08:42.178Z,24.58
2018-03-19T00:11:08.431Z,22.17
2018-03-19T00:13:34.663Z,26.50
2018-03-19T00:16:00.910Z,24.27
2018-03-19T00:18:28.102Z,20.33
2018-03-19T00:20:54.352Z,21.67
2018-03-19T00:23:20.582Z,22.17
2018-03-19T00:25:47.594Z,19.10
2018-03-19T00:28:14.351Z,22.75
2018-03-19T00:30:40.627Z,21.27
2018-03-19T00:33:06.919Z,23.00
2018-03-19T00:35:33.556Z,23.10
2018-03-19T00:38:00.197Z,19.55
2018-03-19T00:40:26.877Z,19.65
2018-03-19T00:42:53.164Z,18.80
2018-03-19T00:45:19.393Z,20.12
2018-03-19T00:47:45.683Z,21.92
2018-03-19T00:50:11.939Z,20.35
2018-03-19T00:52:38.196Z,26.75
2018-03-19T00:55:04.501Z,22.20
2018-03-19T00:57:30.823Z,23.02
2018-03-19T00:59:57.104Z,21.90
2018-03-19T01:02:23.334Z,24.37
2018-03-19T01:04:49.624Z,22.87
2018-03-19T01:07:15.932Z,21.83
2018-03-19T01:09:42.589Z,18.12
2018-03-19T01:12:08.847Z,20.45
2018-03-19T01:14:35.094Z,20.95
2018-03-19T01:17:01.321Z,22.45
2018-03-19T01:19:27.612Z,24.45
2018-03-19T01:21:54.258Z,21.50
2018-03-19T01:24:21.740Z,21.05
2018-03-19T01:26:49.515Z,22.37
2018-03-19T01:29:15.755Z,17.85
2018-03-19T01:31:41.987Z,25.25
2018-03-19T01:34:08.282Z,20.40
2018-03-19T01:36:34.490Z,19.45
2018-03-19T01:39:00.719Z,22.00
2018-03-19T01:41:26.979Z,23.48
2018-03-19T01:43:53.628Z,21.37
2018-03-19T01:46:19.908Z,22.85
2018-03-19T01:48:46.140Z,21.05
2018-03-19T01:51:12.429Z,19.05
2018-03-19T01:53:38.688Z,19.95
2018-03-19T01:56:05.335Z,22.13
2018-03-19T01:58:31.568Z,19.77
2018-03-19T02:00:58.167Z,18.42
2018-03-19T02:03:24.447Z,23.65
2018-03-19T02:05:50.712Z,21.27
2018-03-19T02:08:16.970Z,17.37
2018-03-19T02:10:44.268Z,21.02
2018-03-19T02:13:10.887Z,19.85
2018-03-19T02:15:37.160Z,23.00
2018-03-19T02:18:03.438Z,25.55
2018-03-19T02:20:29.722Z,21.98
2018-03-19T02:22:55.960Z,22.52
2018-03-19T02:25:22.239Z,20.77
2018-03-19T02:27:48.492Z,23.65
2018-03-19T02:30:14.801Z,20.15
2018-03-19T02:32:41.099Z,23.08
2018-03-19T02:35:07.701Z,18.33
2018-03-19T02:37:33.923Z,20.33
2018-03-19T02:40:00.216Z,20.90
2018-03-19T02:42:26.819Z,25.30
2018-03-19T02:44:53.122Z,27.05
2018-03-19T02:47:19.396Z,22.33
2018-03-19T02:49:45.620Z,20.20
2018-03-19T02:52:11.866Z,27.17
2018-03-19T02:54:38.125Z,26.45
2018-03-19T02:57:04.718Z,25.45
2018-03-19T02:59:31.008Z,25.30
2018-03-19T03:01:58.368Z,24.83
2018-03-19T03:04:24.639Z,22.50
2018-03-19T03:06:50.896Z,25.90
2018-03-19T03:09:17.140Z,21.30
2018-03-19T03:11:43.500Z,22.60
2018-03-19T03:14:10.134Z,24.15
2018-03-19T03:16:36.426Z,21.92
2018-03-19T03:19:03.272Z,25.17
2018-03-19T03:21:29.546Z,21.60
2018-03-19T03:23:55.798Z,26.05
2018-03-19T03:26:22.445Z,23.95
2018-03-19T03:28:49.086Z,21.80
2018-03-19T03:31:15.706Z,23.58
2018-03-19T03:33:41.978Z,26.85
2018-03-19T03:36:08.607Z,26.65
2018-03-19T03:38:35.257Z,24.95
2018-03-19T03:41:01.879Z,25.08
2018-03-19T03:43:28.098Z,23.50
2018-03-19T03:45:54.395Z,25.83
2018-03-19T03:48:20.661Z,26.00
2018-03-19T03:50:46.909Z,22.17
2018-03-19T03:53:14.173Z,22.60
2018-03-19T03:55:40.406Z,27.92
2018-03-19T03:58:06.706Z,25.25
2018-03-19T04:00:32.972Z,27.60
2018-03-19T04:02:59.208Z,22.13
2018-03-19T04:05:26.010Z,27.15
2018-03-19T04:07:52.292Z,26.00
2018-03-19T04:10:18.569Z,23.48
2018-03-19T04:12:44.822Z,23.70
2018-03-19T04:15:11.109Z,20.83
2018-03-19T04:17:37.366Z,26.95
2018-03-19T04:20:03.989Z,22.33
2018-03-19T04:22:30.247Z,25.42
2018-03-19T04:24:56.513Z,19.98
2018-03-19T04:27:22.792Z,21.75
2018-03-19T04:29:49.484Z,23.55
2018-03-19T04:32:15.787Z,29.35
2018-03-19T04:34:42.430Z,24.58
2018-03-19T04:37:09.102Z,22.67
2018-03-19T04:39:35.376Z,25.30
2018-03-19T04:42:01.658Z,21.67
2018-03-19T04:44:27.936Z,20.37
2018-03-19T04:46:54.190Z,22.30
2018-03-19T04:49:20.493Z,21.00
2018-03-19T04:51:46.755Z,22.95
2018-03-19T04:54:14.011Z,21.40
2018-03-19T04:56:40.254Z,23.85
2018-03-19T04:59:06.574Z,22.73
2018-03-19T05:01:32.818Z,24.90
2018-03-19T05:03:59.097Z,20.37
2018-03-19T05:06:25.345Z,24.35
2018-03-19T05:08:51.605Z,21.08
2018-03-19T05:11:17.824Z,21.87
2018-03-19T05:13:44.984Z,23.95
2018-03-19T05:16:11.820Z,19.87
2018-03-19T05:18:38.057Z,24.25
2018-03-19T05:21:04.341Z,21.92
2018-03-19T05:23:30.589Z,24.17
2018-03-19T05:25:57.212Z,23.60
2018-03-19T05:28:23.479Z,28.05
2018-03-19T05:30:50.580Z,25.48
2018-03-19T05:33:16.828Z,23.05
2018-03-19T05:35:43.101Z,27.50
2018-03-19T05:38:10.023Z,23.05
2018-03-19T05:40:36.254Z,25.70
2018-03-19T05:43:02.511Z,22.40
2018-03-19T05:45:29.162Z,23.70
2018-03-19T05:47:55.394Z,24.00
2018-03-19T05:50:22.355Z,29.48
2018-03-19T05:52:48.963Z,28.87
2018-03-19T05:55:15.898Z,24.70
2018-03-19T05:57:42.219Z,25.52
2018-03-19T06:00:08.523Z,26.08
2018-03-19T06:02:34.795Z,26.75
2018-03-19T06:05:01.081Z,28.87
2018-03-19T06:07:27.688Z,25.73
2018-03-19T06:09:53.977Z,27.67
2018-03-19T06:12:20.325Z,24.02
2018-03-19T06:14:46.612Z,24.63
2018-03-19T06:17:12.938Z,26.87
2018-03-19T06:19:39.249Z,26.83
2018-03-19T06:22:05.516Z,26.70
2018-03-19T06:24:32.664Z,23.27
2018-03-19T06:26:58.932Z,27.77
2018-03-19T06:29:25.600Z,23.02
2018-03-19T06:31:52.224Z,29.65
2018-03-19T06:34:18.906Z,24.85
2018-03-19T06:36:45.771Z,32.30
2018-03-19T06:39:12.108Z,24.17
2018-03-19T06:41:38.382Z,28.33
2018-03-19T06:44:05.015Z,31.15
2018-03-19T06:46:31.575Z,25.23
2018-03-19T06:48:58.887Z,25.42
2018-03-19T06:51:25.181Z,31.10
2018-03-19T06:53:51.493Z,31.60
2018-03-19T06:56:18.185Z,23.15
2018-03-19T06:58:45.230Z,24.05
2018-03-19T07:01:11.520Z,29.85
2018-03-19T07:03:37.824Z,24.67
2018-03-19T07:06:04.121Z,22.35
2018-03-19T07:08:30.464Z,24.02
2018-03-19T07:10:56.705Z,28.87
2018-03-19T07:13:22.972Z,23.45
2018-03-19T07:15:49.272Z,29.25
2018-03-19T07:18:15.618Z,22.85
2018-03-19T07:20:41.953Z,26.73
2018-03-19T07:23:08.215Z,28.58
2018-03-19T07:25:34.471Z,25.42
2018-03-19T07:28:00.772Z,25.45
2018-03-19T07:30:27.057Z,28.90
2018-03-19T07:32:53.660Z,28.00
2018-03-19T07:35:20.005Z,24.02
2018-03-19T07:37:46.300Z,29.20
2018-03-19T07:40:12.568Z,24.25
2018-03-19T07:42:38.874Z,20.48
2018-03-19T07:45:05.195Z,24.35
2018-03-19T07:47:31.846Z,25.98
2018-03-19T07:49:58.171Z,24.48
2018-03-19T07:52:24.805Z,26.65
2018-03-19T07:54:51.445Z,27.45
2018-03-19T07:57:18.420Z,25.35
2018-03-19T07:59:44.708Z,24.00
2018-03-19T08:02:11.035Z,26.83
2018-03-19T08:04:37.348Z,25.15
2018-03-19T08:07:03.660Z,27.20
2018-03-19T08:09:29.923Z,23.98
2018-03-19T08:11:56.212Z,24.27
2018-03-19T08:14:23.226Z,32.60
2018-03-19T08:16:49.503Z,23.92
2018-03-19T08:19:16.216Z,26.17
2018-03-19T08:21:42.499Z,22.55
2018-03-19T08:24:08.766Z,27.08
2018-03-19T08:26:35.876Z,23.75
2018-03-19T08:29:02.591Z,27.75
2018-03-19T08:31:28.886Z,29.02
2018-03-19T08:33:55.122Z,27.20
2018-03-19T08:36:21.465Z,22.45
2018-03-19T08:38:47.747Z,27.80
2018-03-19T08:41:15.149Z,22.50
2018-03-19T08:43:41.468Z,29.50
2018-03-19T08:46:08.279Z,35.80
2018-03-19T08:48:34.556Z,34.95
2018-03-19T08:51:01.118Z,29.20
2018-03-19T08:53:27.393Z,29.92
2018-03-19T08:55:53.663Z,27.90
2018-03-19T08:58:20.328Z,26.15
2018-03-19T09:00:46.683Z,28.85
2018-03-19T09:03:12.928Z,32.53
2018-03-19T09:05:39.567Z,33.03
2018-03-19T09:08:05.850Z,31.67
2018-03-19T09:10:32.469Z,30.42
2018-03-19T09:12:58.761Z,29.12
2018-03-19T09:15:25.036Z,30.37
2018-03-19T09:17:51.604Z,28.77
2018-03-19T09:20:18.256Z,27.30
2018-03-19T09:22:44.620Z,30.45
2018-03-19T09:25:10.964Z,23.52
2018-03-19T09:27:37.209Z,26.60
2018-03-19T09:30:03.534Z,28.30
2018-03-19T09:32:30.150Z,31.50
2018-03-19T09:34:56.421Z,28.35
2018-03-19T09:37:22.698Z,25.73
2018-03-19T09:39:49.281Z,28.08
2018-03-19T09:42:16.586Z,27.98
2018-03-19T09:44:42.842Z,26.52
2018-03-19T09:47:09.803Z,26.52
2018-03-19T09:49:36.471Z,25.42
2018-03-19T09:52:02.744Z,32.42
2018-03-19T09:54:29.057Z,29.80
2018-03-19T09:56:55.363Z,28.62
2018-03-19T09:59:21.656Z,28.42
2018-03-19T10:01:47.952Z,28.58
2018-03-19T10:04:16.003Z,30.73
2018-03-19T10:06:42.626Z,29.65
2018-03-19T10:09:08.870Z,25.23
2018-03-19T10:11:35.829Z,30.33
2018-03-19T10:14:02.497Z,28.02
2018-03-19T10:16:28.808Z,25.45
2018-03-19T10:18:55.475Z,33.92
2018-03-19T10:21:21.744Z,28.20
2018-03-19T10:23:48.019Z,87.68
2018-03-19T10:26:14.781Z,37.40
2018-03-19T10:28:41.055Z,26.30
2018-03-19T10:31:08.171Z,27.27
2018-03-19T10:33:34.810Z,30.95
2018-03-19T10:36:01.083Z,33.50
2018-03-19T10:38:27.372Z,39.20
2018-03-19T10:40:54.350Z,29.37
2018-03-19T10:43:20.657Z,27.62
2018-03-19T10:45:47.298Z,25.55
2018-03-19T10:48:13.615Z,26.75
2018-03-19T10:50:40.542Z,31.48
2018-03-19T10:53:06.815Z,25.30
2018-03-19T10:55:33.124Z,24.92
2018-03-19T10:58:00.379Z,29.05
2018-03-19T11:00:26.624Z,22.87
2018-03-19T11:02:53.864Z,29.25
2018-03-19T11:05:26.195Z,26.33
2018-03-19T11:21:08.990Z,24.23
2018-03-19T11:23:35.215Z,27.42
2018-03-19T11:26:01.845Z,27.23
2018-03-19T11:28:28.541Z,28.00
2018-03-19T11:30:55.121Z,33.33
2018-03-19T11:33:21.398Z,33.83
2018-03-19T11:35:47.650Z,32.70
2018-03-19T11:38:13.874Z,30.23
2018-03-19T11:40:40.109Z,27.50
2018-03-19T11:43:06.391Z,28.75
2018-03-19T11:45:32.642Z,39.45
2018-03-19T11:47:58.886Z,27.77
2018-03-19T11:50:25.582Z,25.25
2018-03-19T11:52:54.083Z,28.62
2018-03-19T11:55:20.257Z,32.80
2018-03-19T11:57:46.752Z,28.85
2018-03-19T12:00:12.949Z,27.45
2018-03-19T12:02:39.180Z,30.48
2018-03-19T12:05:06.228Z,39.55
2018-03-19T12:07:32.821Z,33.30
2018-03-19T12:09:59.054Z,31.73
2018-03-19T12:12:25.328Z,28.67
2018-03-19T12:14:51.925Z,26.87
2018-03-19T12:17:18.170Z,32.55
2018-03-19T12:19:44.413Z,35.28
2018-03-19T12:22:11.028Z,39.50
2018-03-19T12:24:37.238Z,35.28
2018-03-19T12:27:03.485Z,36.63
2018-03-19T12:29:29.716Z,30.17
2018-03-19T12:31:55.927Z,34.08
2018-03-19T12:34:22.170Z,26.65
2018-03-19T12:36:48.406Z,26.58
2018-03-19T12:39:14.663Z,25.85
2018-03-19T12:41:41.271Z,24.17
2018-03-19T12:44:07.509Z,21.42
2018-03-19T12:46:34.110Z,26.12
2018-03-19T12:49:00.357Z,27.15
2018-03-19T12:51:30.509Z,26.65
2018-03-19T12:53:57.153Z,22.62
2018-03-19T12:56:23.406Z,25.52
2018-03-19T12:58:49.660Z,22.80
2018-03-19T13:01:16.813Z,27.15
2018-03-19T13:03:43.037Z,22.45
2018-03-19T13:06:09.230Z,22.90
2018-03-19T13:08:35.488Z,22.40
2018-03-19T13:11:01.716Z,21.52
2018-03-19T13:13:27.942Z,20.33
2018-03-19T13:15:54.133Z,18.42
2018-03-19T13:18:20.839Z,21.23
2018-03-19T13:20:47.112Z,23.00
2018-03-19T13:23:13.329Z,22.92
2018-03-19T13:25:39.579Z,25.88
2018-03-19T13:28:05.791Z,23.48
2018-03-19T13:30:32.033Z,23.40
2018-03-19T13:32:58.612Z,23.98
2018-03-19T13:35:24.836Z,20.10
2018-03-19T13:37:51.044Z,26.35
2018-03-19T13:40:17.269Z,21.58
2018-03-19T13:42:43.525Z,25.10
2018-03-19T13:45:10.728Z,22.58
2018-03-19T13:47:37.639Z,20.35
2018-03-19T13:50:03.907Z,18.85
2018-03-19T13:52:30.104Z,18.80
2018-03-19T13:54:56.710Z,21.08
2018-03-19T13:57:22.972Z,24.95
2018-03-19T13:59:49.200Z,20.83
2018-03-19T14:02:15.445Z,27.40
2018-03-19T14:04:41.710Z,23.67
2018-03-19T14:07:07.949Z,25.62
2018-03-19T14:09:34.184Z,23.00
2018-03-19T14:12:00.468Z,29.05
2018-03-19T14:14:26.716Z,22.13
2018-03-19T14:16:52.936Z,23.10
2018-03-19T14:19:19.166Z,23.83
2018-03-19T14:21:45.365Z,23.95
2018-03-19T14:24:11.566Z,22.70
2018-03-19T14:26:37.810Z,28.60
2018-03-19T14:29:04.055Z,25.27
2018-03-19T14:31:30.301Z,23.33
2018-03-19T14:33:56.574Z,24.40
2018-03-19T14:36:23.214Z,24.15
2018-03-19T14:38:49.807Z,27.83
2018-03-19T14:41:17.205Z,23.77
2018-03-19T14:43:43.434Z,27.37
2018-03-19T14:46:09.676Z,26.48
2018-03-19T14:48:35.953Z,24.58
2018-03-19T14:51:02.206Z,23.87
2018-03-19T14:53:28.448Z,27.17
2018-03-19T14:55:55.115Z,22.98
2018-03-19T14:58:21.320Z,25.85
2018-03-19T15:00:47.957Z,29.15
2018-03-19T15:03:14.578Z,29.00
2018-03-19T15:05:40.797Z,24.30
2018-03-19T15:08:07.300Z,26.70
2018-03-19T15:10:33.516Z,29.37
2018-03-19T15:12:59.736Z,34.70
2018-03-19T15:15:25.978Z,33.08
2018-03-19T15:17:52.209Z,27.58
2018-03-19T15:20:18.477Z,27.15
2018-03-19T15:22:45.008Z,25.98
2018-03-19T15:25:11.236Z,25.88
2018-03-19T15:27:37.512Z,26.65
2018-03-19T15:30:03.781Z,26.90
2018-03-19T15:32:30.043Z,27.17
2018-03-19T15:34:56.309Z,30.08
2018-03-19T15:37:22.571Z,33.03
2018-03-19T15:39:48.810Z,27.33
2018-03-19T15:42:15.314Z,28.48
2018-03-19T15:44:41.813Z,27.77
2018-03-19T15:47:08.058Z,32.40
2018-03-19T15:49:34.303Z,28.42
2018-03-19T15:52:00.972Z,34.35
2018-03-19T15:54:27.186Z,33.85
2018-03-19T15:56:53.433Z,30.88
2018-03-19T15:59:19.737Z,35.92
2018-03-19T16:01:46.038Z,30.75
2018-03-19T16:04:12.309Z,32.25
2018-03-19T16:06:38.601Z,32.13
2018-03-19T16:09:04.881Z,34.63
2018-03-19T16:11:32.868Z,33.80
2018-03-19T16:13:59.563Z,34.22
2018-03-19T16:16:25.815Z,27.65
2018-03-19T16:18:52.069Z,31.10
2018-03-19T16:21:18.574Z,33.35
2018-03-19T16:23:44.784Z,29.75
2018-03-19T16:26:11.044Z,28.12
2018-03-19T16:28:37.648Z,31.40
2018-03-19T16:31:03.883Z,33.95
2018-03-19T16:33:30.109Z,28.23
2018-03-19T16:35:56.409Z,32.97
2018-03-19T16:38:23.647Z,31.33
2018-03-19T16:40:49.840Z,30.45
2018-03-19T16:43:16.078Z,36.00
2018-03-19T16:45:42.708Z,36.65
2018-03-19T16:48:09.327Z,34.10
2018-03-19T16:50:35.564Z,30.55
2018-03-19T16:53:01.812Z,35.03
2018-03-19T16:55:28.100Z,33.60
2018-03-19T16:57:54.338Z,32.42
2018-03-19T17:00:20.596Z,32.30
2018-03-19T17:02:46.910Z,32.90
2018-03-19T17:05:13.200Z,32.92
2018-03-19T17:07:39.441Z,38.33
2018-03-19T17:10:05.730Z,36.63
2018-03-19T17:12:32.322Z,30.80
2018-03-19T17:14:58.600Z,33.13
2018-03-19T17:17:25.284Z,30.27
2018-03-19T17:19:51.520Z,31.85
2018-03-19T17:22:18.434Z,35.25
2018-03-19T17:24:45.169Z,31.73
2018-03-19T17:27:11.397Z,32.65
2018-03-19T17:29:37.605Z,33.33
2018-03-19T17:32:04.148Z,29.55
2018-03-19T17:34:30.379Z,31.37
2018-03-19T17:36:56.660Z,34.72
2018-03-19T17:39:22.996Z,32.42
2018-03-19T17:41:49.236Z,38.00
2018-03-19T17:44:15.529Z,38.53
2018-03-19T17:46:41.821Z,32.95
2018-03-19T17:49:08.083Z,32.00
2018-03-19T17:51:34.350Z,32.53
2018-03-19T17:54:00.668Z,34.28
2018-03-19T17:56:26.931Z,31.77
2018-03-19T17:58:53.507Z,33.20
2018-03-19T18:01:20.205Z,28.75
2018-03-19T18:03:46.775Z,36.38
2018-03-19T18:06:13.057Z,33.90
2018-03-19T18:08:39.700Z,33.50
2018-03-19T18:11:06.426Z,31.33
2018-03-19T18:13:32.651Z,35.42
2018-03-19T18:15:58.949Z,34.72
2018-03-19T18:18:25.213Z,30.65
2018-03-19T18:20:51.821Z,32.63
2018-03-19T18:23:18.087Z,28.02
2018-03-19T18:25:44.705Z,32.80
2018-03-19T18:28:10.911Z,27.95
2018-03-19T18:30:37.456Z,28.70
2018-03-19T18:33:03.743Z,33.90
2018-03-19T18:35:29.965Z,29.30
2018-03-19T18:37:56.220Z,29.20
2018-03-19T18:40:23.510Z,31.23
2018-03-19T18:42:49.797Z,38.50
2018-03-19T18:45:16.687Z,39.35
2018-03-19T18:47:42.923Z,31.67
2018-03-19T18:50:09.243Z,41.40
2018-03-19T18:52:35.505Z,37.17
2018-03-19T18:55:01.746Z,35.95
2018-03-19T18:57:28.018Z,32.60
2018-03-19T18:59:54.268Z,39.08
2018-03-19T19:02:20.523Z,42.03
2018-03-19T19:04:46.823Z,42.08
2018-03-19T19:07:13.082Z,39.58
2018-03-19T19:09:39.404Z,43.97
2018-03-19T19:12:05.706Z,41.22
2018-03-19T19:14:31.946Z,34.72
2018-03-19T19:16:58.614Z,34.05
2018-03-19T19:19:24.967Z,38.35
2018-03-19T19:21:51.281Z,42.92
2018-03-19T19:24:17.519Z,39.75
2018-03-19T19:26:43.832Z,36.13
2018-03-19T19:29:10.140Z,35.45
2018-03-19T19:31:36.740Z,33.85
2018-03-19T19:34:03.152Z,30.67
2018-03-19T19:36:29.437Z,33.35
2018-03-19T19:38:56.109Z,30.23
2018-03-19T19:41:22.936Z,29.00
2018-03-19T19:43:49.265Z,31.12
2018-03-19T19:46:15.533Z,31.87
2018-03-19T19:48:41.842Z,36.60
2018-03-19T19:51:08.119Z,31.65
2018-03-19T19:53:34.398Z,30.23
2018-03-19T19:56:00.704Z,32.05
2018-03-19T19:58:26.974Z,32.92
2018-03-19T20:00:53.245Z,32.75
2018-03-19T20:03:19.568Z,32.17
2018-03-19T20:05:46.248Z,27.37
2018-03-19T20:08:12.572Z,24.52
2018-03-19T20:10:38.933Z,26.92
2018-03-19T20:13:05.528Z,27.75
2018-03-19T20:15:31.811Z,41.15
2018-03-19T20:17:58.092Z,30.98
2018-03-19T20:20:24.400Z,36.60
2018-03-19T20:22:51.295Z,29.73
2018-03-19T20:25:17.545Z,31.58
2018-03-19T20:27:43.837Z,28.55
2018-03-19T20:30:10.085Z,31.25
2018-03-19T20:32:36.354Z,29.75
2018-03-19T20:35:03.075Z,28.48
2018-03-19T20:37:29.356Z,28.20
2018-03-19T20:39:56.331Z,27.90
2018-03-19T20:42:22.592Z,27.55
2018-03-19T20:44:48.981Z,29.80
2018-03-19T20:47:15.641Z,29.80
2018-03-19T20:49:42.053Z,27.80
2018-03-19T20:52:08.361Z,29.00
2018-03-19T20:54:34.642Z,26.87
2018-03-19T20:57:01.039Z,26.87
2018-03-19T20:59:28.155Z,27.83
2018-03-19T21:01:54.459Z,25.00
2018-03-19T21:04:20.720Z,30.23
2018-03-19T21:06:46.981Z,27.92
2018-03-19T21:09:13.650Z,29.98
2018-03-19T21:11:40.000Z,26.33
2018-03-19T21:14:06.345Z,25.55
2018-03-19T21:16:32.995Z,25.05
2018-03-19T21:18:59.277Z,24.92
2018-03-19T21:21:25.526Z,23.52
2018-03-19T21:23:51.801Z,28.67
2018-03-19T21:26:18.062Z,25.50
2018-03-19T21:28:44.394Z,24.35
2018-03-19T21:31:10.628Z,23.67
2018-03-19T21:33:36.926Z,25.98
2018-03-19T21:36:03.221Z,27.62
2018-03-19T21:38:29.511Z,29.92
2018-03-19T21:40:55.746Z,22.52
2018-03-19T21:43:22.028Z,29.02
2018-03-19T21:45:48.292Z,23.67
2018-03-19T21:48:14.537Z,25.08
2018-03-19T21:50:41.169Z,21.50
2018-03-19T21:53:07.398Z,25.73
2018-03-19T21:55:33.694Z,20.95
2018-03-19T21:57:59.974Z,25.55
2018-03-19T22:00:26.229Z,24.00
2018-03-19T22:02:52.531Z,24.65
2018-03-19T22:05:18.812Z,24.10
2018-03-19T22:07:45.042Z,25.23
2018-03-19T22:10:11.609Z,21.27
2018-03-19T22:12:37.834Z,25.65
2018-03-19T22:15:04.080Z,27.27
2018-03-19T22:17:30.751Z,24.27
2018-03-19T22:19:56.986Z,25.90
2018-03-19T22:22:23.219Z,21.15
2018-03-19T22:24:49.472Z,24.67
2018-03-19T22:27:15.803Z,24.30
2018-03-19T22:29:42.083Z,25.23
2018-03-19T22:32:08.337Z,28.55
2018-03-19T22:34:34.583Z,21.58
2018-03-19T22:37:00.836Z,24.23
2018-03-19T22:39:27.168Z,24.17
2018-03-19T22:41:53.416Z,23.58
2018-03-19T22:44:19.997Z,22.30
2018-03-19T22:46:46.210Z,22.98
2018-03-19T22:49:12.451Z,20.42
2018-03-19T22:51:38.663Z,24.75
2018-03-19T22:54:05.538Z,22.95
2018-03-19T22:56:32.392Z,24.87
2018-03-19T22:58:58.625Z,22.60
2018-03-19T23:01:24.870Z,21.77
2018-03-19T23:03:51.482Z,26.87
2018-03-19T23:06:17.702Z,21.55
2018-03-19T23:08:43.930Z,23.80
2018-03-19T23:11:10.173Z,24.02
2018-03-19T23:13:36.785Z,22.48
2018-03-19T23:16:03.027Z,26.67
2018-03-19T23:18:29.277Z,24.52
2018-03-19T23:20:55.864Z,24.70
2018-03-19T23:23:22.065Z,28.50
2018-03-19T23:25:48.342Z,25.25
2018-03-19T23:28:14.576Z,25.17
2018-03-19T23:30:40.858Z,28.10
2018-03-19T23:33:07.118Z,27.73
2018-03-19T23:35:33.333Z,25.70
2018-03-19T23:37:59.563Z,21.98
2018-03-19T23:40:25.813Z,24.48
2018-03-19T23:42:52.029Z,29.73
2018-03-19T23:45:18.271Z,29.00
2018-03-19T23:47:44.519Z,26.35
2018-03-19T23:50:10.734Z,27.87
2018-03-19T23:52:36.978Z,29.17
2018-03-19T23:55:03.271Z,32.63
2018-03-19T23:57:29.502Z,32.17
2018-03-19T23:59:55.720Z,26.87
